Time;durP1;ratioP1;P1;durP2;ratioP2;P2;SDS_P1;SDS_P2;PMS_P1;PMS_P2;Temp;Humidity;BMP_temperature;BMP_pressure;BME280_temperature;BME280_humidity;BME280_pressure;Samples;Min_cycle;Max_cycle;Signal;HPM_P1;HPM_P2
2023/01/23 00:00:40;;;;;;;152.63;90.90;;;128.60;2252.80;;;;;;5074927;28;20028;-89
2023/01/23 00:03:05;;;;;;;167.45;100.15;;;128.60;2252.80;;;;;;5074525;28;20042;-87
2023/01/23 00:05:31;;;;;;;177.00;109.03;;;128.60;2252.80;;;;;;5070412;28;20029;-86
2023/01/23 00:07:57;;;;;;;170.23;104.07;;;128.70;2252.80;;;;;;5054355;28;20108;-86
2023/01/23 00:10:23;;;;;;;133.25;86.35;;;128.80;2252.80;;;;;;5054053;28;20056;-82
2023/01/23 00:12:48;;;;;;;149.45;90.05;;;128.80;2252.80;;;;;;5053813;28;20455;-81
2023/01/23 00:15:15;;;;;;;143.73;90.25;;;128.90;2124.80;;;;;;5053570;28;20111;-85
2023/01/23 00:17:41;;;;;;;155.25;96.97;;;128.80;2201.60;;;;;;5054140;28;20029;-85
2023/01/23 00:20:08;;;;;;;148.57;88.88;;;128.90;2048.00;;;;;;5054351;28;20112;-86
2023/01/23 00:22:35;;;;;;;133.60;82.10;;;128.90;2252.80;;;;;;5053779;28;20029;-85
2023/01/23 00:25:00;;;;;;;112.57;70.45;;;128.90;2252.80;;;;;;5055092;28;20029;-86
2023/01/23 00:27:26;;;;;;;145.07;89.63;;;128.90;2252.80;;;;;;5054082;28;20025;-86
2023/01/23 00:29:53;;;;;;;178.82;107.75;;;128.70;2252.80;;;;;;5054000;28;20044;-86
2023/01/23 00:32:18;;;;;;;149.43;86.93;;;128.60;2252.80;;;;;;5053797;28;20188;-86
2023/01/23 00:34:45;;;;;;;96.35;53.42;;;128.50;2252.80;;;;;;5053728;28;20092;-89
2023/01/23 00:37:12;;;;;;;93.45;52.13;;;128.30;2252.80;;;;;;5053752;28;20171;-88
2023/01/23 00:39:38;;;;;;;142.85;81.18;;;128.30;2252.80;;;;;;5053067;28;20024;-87
2023/01/23 00:42:04;;;;;;;107.00;60.05;;;103.30;2227.20;;;;;;5053462;28;20035;-88
2023/01/23 00:44:30;;;;;;;111.60;60.65;;;103.30;2227.20;;;;;;5053774;28;20029;-88
2023/01/23 00:46:56;;;;;;;123.18;68.40;;;128.00;2252.80;;;;;;5053950;28;20099;-90
2023/01/23 00:49:22;;;;;;;161.70;81.30;;;128.30;2252.80;;;;;;5053809;28;20114;-88
2023/01/23 00:51:49;;;;;;;199.35;105.13;;;128.20;2252.80;;;;;;5053476;28;20459;-87
2023/01/23 00:54:15;;;;;;;206.90;117.75;;;128.30;2252.80;;;;;;5053801;28;20029;-87
2023/01/23 00:56:41;;;;;;;210.45;122.15;;;128.30;2252.80;;;;;;5053814;28;20021;-87
2023/01/23 00:59:07;;;;;;;163.27;94.20;;;128.10;2252.80;;;;;;5053488;28;20092;-87
2023/01/23 01:01:33;;;;;;;183.00;101.05;;;103.30;2227.20;;;;;;5066156;28;20123;-90
2023/01/23 01:03:59;;;;;;;142.48;82.28;;;103.30;2227.20;;;;;;5073419;28;20462;-88
2023/01/23 01:06:25;;;;;;;148.30;86.28;;;103.30;2227.20;;;;;;5074178;28;20078;-86
2023/01/23 01:08:51;;;;;;;146.27;78.18;;;128.00;2252.80;;;;;;5073241;28;20108;-85
2023/01/23 01:11:17;;;;;;;155.90;87.35;;;103.30;2227.20;;;;;;5073336;28;20076;-89
2023/01/23 01:13:43;;;;;;;159.55;84.40;;;103.30;2227.20;;;;;;5073454;28;20031;-87
2023/01/23 01:16:10;;;;;;;170.38;92.68;;;128.00;2252.80;;;;;;5074315;28;20036;-87
2023/01/23 01:18:36;;;;;;;127.25;63.63;;;103.30;1843.20;;;;;;5073101;28;20067;-87
2023/01/23 01:21:10;;;;;;;114.13;59.00;;;103.30;2227.20;;;;;;5073315;28;20040;-87
2023/01/23 01:23:37;;;;;;;103.05;57.90;;;103.30;2227.20;;;;;;5073057;28;20033;-87
2023/01/23 01:26:04;;;;;;;104.47;57.00;;;128.00;2252.80;;;;;;5073169;28;20029;-86
2023/01/23 01:28:31;;;;;;;108.70;58.20;;;128.00;2252.80;;;;;;5073278;28;20021;-87
2023/01/23 01:31:02;;;;;;;106.22;58.03;;;128.10;2252.80;;;;;;5059610;28;20025;-87
2023/01/23 01:33:28;;;;;;;192.15;99.63;;;128.10;2252.80;;;;;;5069797;28;20108;-87
2023/01/23 01:35:56;;;;;;;181.30;99.05;;;128.00;2252.80;;;;;;5068370;28;20450;-83
2023/01/23 01:38:23;;;;;;;186.02;99.18;;;128.10;2252.80;;;;;;5072768;28;20064;-87
2023/01/23 01:40:49;;;;;;;184.57;103.28;;;128.10;2252.80;;;;;;5073108;28;20036;-86
2023/01/23 01:43:23;;;;;;;187.35;105.47;;;128.10;2252.80;;;;;;5073064;28;20028;-87
2023/01/23 01:46:10;;;;;;;173.95;95.57;;;128.10;2252.80;;;;;;5073072;28;20028;-87
2023/01/23 01:49:00;;;;;;;172.25;95.85;;;128.10;2252.80;;;;;;5073200;28;20470;-87
2023/01/23 01:51:41;;;;;;;159.80;85.15;;;128.10;2252.80;;;;;;5075765;28;20064;-87
2023/01/23 01:54:31;;;;;;;153.88;82.53;;;128.10;2252.80;;;;;;5077042;28;20038;-87
2023/01/23 01:56:59;;;;;;;138.00;72.90;;;128.20;2252.80;;;;;;5077058;28;20095;-86
2023/01/23 01:59:29;;;;;;;135.15;68.65;;;128.00;2252.80;;;;;;5076913;28;20020;-87
2023/01/23 02:02:04;;;;;;;128.43;63.03;;;128.00;2252.80;;;;;;5076676;28;20032;-87
2023/01/23 02:04:35;;;;;;;140.63;70.55;;;128.10;2252.80;;;;;;5076876;28;20031;-87
2023/01/23 02:07:07;;;;;;;150.70;80.63;;;128.10;2252.80;;;;;;5077031;28;20031;-88
2023/01/23 02:09:34;;;;;;;192.07;106.43;;;128.20;2252.80;;;;;;5076490;28;20428;-86
2023/01/23 02:12:01;;;;;;;203.73;111.53;;;128.30;2252.80;;;;;;5076620;28;20032;-86
2023/01/23 02:14:27;;;;;;;205.18;110.60;;;128.20;2252.80;;;;;;5077664;28;20055;-86
2023/01/23 02:16:58;;;;;;;194.13;102.95;;;128.00;2252.80;;;;;;5076401;28;20063;-86
2023/01/23 02:19:36;;;;;;;208.25;107.90;;;128.10;2252.80;;;;;;5076456;28;20025;-86
2023/01/23 02:22:17;;;;;;;156.65;78.57;;;128.10;2252.80;;;;;;5076584;28;20028;-88
2023/01/23 02:24:53;;;;;;;108.45;56.33;;;128.10;2252.80;;;;;;5076487;28;20086;-89
2023/01/23 02:27:19;;;;;;;104.55;54.08;;;128.10;2252.80;;;;;;5076363;28;20035;-86
2023/01/23 02:29:47;;;;;;;90.40;49.20;;;128.10;2252.80;;;;;;5076222;28;20028;-88
2023/01/23 02:32:12;;;;;;;108.05;56.55;;;128.20;2252.80;;;;;;5076546;28;20392;-88
2023/01/23 02:34:39;;;;;;;148.45;75.97;;;128.30;2252.80;;;;;;5076381;28;20024;-86
2023/01/23 02:37:07;;;;;;;158.10;82.53;;;128.20;2176.00;;;;;;5076265;28;20099;-87
2023/01/23 02:39:32;;;;;;;187.93;97.90;;;128.20;2252.80;;;;;;5076172;28;20107;-87
2023/01/23 02:41:59;;;;;;;198.30;103.13;;;128.30;2252.80;;;;;;5076089;28;20040;-88
2023/01/23 02:44:30;;;;;;;191.52;106.53;;;128.20;2252.80;;;;;;5075872;28;20082;-88
2023/01/23 02:47:03;;;;;;;185.02;104.43;;;128.20;2252.80;;;;;;5076065;28;20025;-86
2023/01/23 02:49:30;;;;;;;204.52;108.00;;;128.30;2252.80;;;;;;5076081;28;20071;-87
2023/01/23 02:51:56;;;;;;;183.68;96.20;;;128.10;2252.80;;;;;;5075742;28;20025;-87
2023/01/23 02:54:22;;;;;;;194.45;100.93;;;103.30;2227.20;;;;;;5075898;28;20071;-86
2023/01/23 02:56:49;;;;;;;171.63;98.47;;;103.30;2227.20;;;;;;5075961;28;20028;-88
2023/01/23 03:01:59;;;;;;;129.60;66.10;;;128.00;2252.80;;;;;;5075882;28;20032;-87
2023/01/23 03:04:25;;;;;;;107.97;58.45;;;103.30;2227.20;;;;;;5075743;28;20078;-88
2023/01/23 03:06:51;;;;;;;107.45;54.50;;;128.10;2252.80;;;;;;5075471;28;20025;-86
2023/01/23 03:09:17;;;;;;;145.80;70.47;;;128.10;2252.80;;;;;;5075627;28;20027;-88
2023/01/23 03:11:45;;;;;;;169.98;76.05;;;128.20;2252.80;;;;;;5075257;28;20052;-88
2023/01/23 03:14:14;;;;;;;116.80;63.72;;;128.20;2252.80;;;;;;5075971;28;20020;-90
2023/01/23 03:16:41;;;;;;;131.60;68.70;;;128.20;2252.80;;;;;;5075662;28;20029;-90
2023/01/23 03:19:09;;;;;;;125.20;65.70;;;128.20;2252.80;;;;;;5075297;28;20121;-87
2023/01/23 03:21:36;;;;;;;157.05;78.72;;;128.20;2252.80;;;;;;5075523;28;20064;-87
2023/01/23 03:24:08;;;;;;;185.23;96.13;;;128.10;2252.80;;;;;;5075145;28;20036;-86
2023/01/23 03:26:33;;;;;;;184.20;90.22;;;128.00;2252.80;;;;;;5076490;28;20076;-87
2023/01/23 03:31:44;;;;;;;185.02;94.43;;;128.30;2252.80;;;;;;5076436;28;20143;-87
2023/01/23 03:34:09;;;;;;;198.13;95.57;;;128.30;2252.80;;;;;;5074869;28;20115;-86
2023/01/23 03:36:36;;;;;;;176.82;89.05;;;128.30;2252.80;;;;;;5075018;28;20032;-87
2023/01/23 03:41:52;;;;;;;178.52;97.32;;;128.50;2252.80;;;;;;5075959;28;20070;-86
2023/01/23 03:44:19;;;;;;;201.88;106.03;;;128.50;2252.80;;;;;;5074900;28;20051;-85
2023/01/23 03:46:46;;;;;;;206.48;113.00;;;128.40;2252.80;;;;;;5074582;28;20036;-86
2023/01/23 03:49:12;;;;;;;180.45;98.07;;;128.30;2252.80;;;;;;5074662;28;20186;-87
2023/01/23 03:51:38;;;;;;;126.07;69.75;;;128.30;2252.80;;;;;;5075034;28;20051;-88
2023/01/23 03:54:04;;;;;;;100.43;57.20;;;128.20;2252.80;;;;;;5054796;28;20458;-86
2023/01/23 03:56:30;;;;;;;92.32;46.88;;;128.20;2252.80;;;;;;5054648;28;20029;-86
2023/01/23 03:58:56;;;;;;;91.28;46.47;;;128.30;2252.80;;;;;;5054397;28;20027;-87
2023/01/23 04:01:22;;;;;;;90.97;45.33;;;128.40;2252.80;;;;;;5067337;28;20021;-86
2023/01/23 04:03:49;;;;;;;86.50;46.38;;;128.30;2252.80;;;;;;5074420;28;20089;-86
2023/01/23 04:06:14;;;;;;;93.88;48.70;;;128.20;2252.80;;;;;;5074111;28;20087;-87
2023/01/23 04:08:40;;;;;;;102.03;51.00;;;128.30;2252.80;;;;;;5073962;28;20032;-87
2023/01/23 04:11:09;;;;;;;132.18;67.10;;;128.40;2252.80;;;;;;5073958;28;20113;-85
2023/01/23 04:13:35;;;;;;;145.90;78.15;;;128.50;2252.80;;;;;;5074440;28;20028;-88
2023/01/23 04:16:01;;;;;;;138.23;73.50;;;128.50;2252.80;;;;;;5074252;28;20029;-89
2023/01/23 04:18:27;;;;;;;137.45;73.25;;;128.40;2252.80;;;;;;5074256;28;20158;-86
2023/01/23 04:20:53;;;;;;;136.50;71.18;;;128.50;2252.80;;;;;;5074090;28;20025;-85
2023/01/23 04:23:19;;;;;;;136.30;72.53;;;128.50;2252.80;;;;;;5073907;28;20029;-88
2023/01/23 04:25:45;;;;;;;162.93;82.88;;;128.60;2252.80;;;;;;5074202;28;20051;-86
2023/01/23 04:28:11;;;;;;;141.73;74.03;;;128.40;2252.80;;;;;;5073948;28;20461;-86
2023/01/23 04:30:37;;;;;;;141.05;71.95;;;128.50;2252.80;;;;;;5063346;28;20028;-87
2023/01/23 04:33:02;;;;;;;127.40;65.97;;;128.60;1894.40;;;;;;5055099;28;20092;-86
2023/01/23 04:35:28;;;;;;;122.05;64.90;;;128.70;2252.80;;;;;;5053436;28;20107;-88
2023/01/23 04:37:54;;;;;;;132.32;68.53;;;128.80;2252.80;;;;;;5053760;28;20055;-87
2023/01/23 04:40:20;;;;;;;120.40;67.18;;;128.80;2252.80;;;;;;5054003;28;20053;-86
2023/01/23 04:42:45;;;;;;;128.43;70.07;;;128.70;2252.80;;;;;;5054903;28;20036;-88
2023/01/23 04:45:11;;;;;;;124.68;66.45;;;128.80;2252.80;;;;;;5054189;28;20087;-86
2023/01/23 04:47:37;;;;;;;143.60;75.10;;;128.80;2252.80;;;;;;5053659;28;20390;-86
2023/01/23 04:50:04;;;;;;;173.68;91.45;;;128.70;2252.80;;;;;;5053655;28;20067;-86
2023/01/23 04:52:30;;;;;;;178.48;93.40;;;128.50;2252.80;;;;;;5053499;28;20025;-88
2023/01/23 04:54:55;;;;;;;170.48;96.47;;;128.40;2252.80;;;;;;5053639;28;20032;-87
2023/01/23 04:57:21;;;;;;;157.63;88.38;;;128.50;2252.80;;;;;;5053269;28;20394;-87
2023/01/23 04:59:47;;;;;;;168.68;100.95;;;128.40;2252.80;;;;;;5053763;28;20025;-88
2023/01/23 05:02:12;;;;;;;162.15;99.35;;;128.40;2252.80;;;;;;5053523;28;20033;-87
2023/01/23 05:04:38;;;;;;;157.88;94.40;;;128.50;2252.80;;;;;;5053501;28;20036;-88
2023/01/23 05:07:04;;;;;;;204.35;120.85;;;128.60;2252.80;;;;;;5053535;28;20477;-88
2023/01/23 05:09:30;;;;;;;169.23;96.05;;;128.50;2252.80;;;;;;5053510;28;20108;-88
2023/01/23 05:11:55;;;;;;;186.05;105.95;;;128.60;2252.80;;;;;;5053202;28;20048;-86
2023/01/23 05:14:23;;;;;;;204.88;112.30;;;128.70;2252.80;;;;;;5054472;28;20494;-88
2023/01/23 05:16:48;;;;;;;186.68;101.80;;;128.70;2252.80;;;;;;5053482;28;20025;-88
2023/01/23 05:19:14;;;;;;;171.45;98.72;;;128.60;2252.80;;;;;;5053344;28;20099;-88
2023/01/23 05:21:40;;;;;;;186.05;103.28;;;128.70;2252.80;;;;;;5053226;28;20115;-88
2023/01/23 05:24:06;;;;;;;345.55;151.40;;;128.70;2252.80;;;;;;5053147;28;20025;-88
2023/01/23 05:26:33;;;;;;;344.33;151.65;;;128.80;2252.80;;;;;;5052739;28;20467;-89
2023/01/23 05:28:59;;;;;;;162.02;92.22;;;128.80;2252.80;;;;;;5053207;28;20170;-87
2023/01/23 05:31:25;;;;;;;151.20;92.43;;;128.80;2252.80;;;;;;5052990;28;20059;-88
2023/01/23 05:33:51;;;;;;;162.82;100.82;;;128.80;2252.80;;;;;;5053204;28;20055;-89
2023/01/23 05:36:17;;;;;;;144.75;92.18;;;128.80;2252.80;;;;;;5052993;28;20032;-88
2023/01/23 05:38:42;;;;;;;185.05;109.75;;;128.80;2252.80;;;;;;5053183;28;20036;-88
2023/01/23 05:41:08;;;;;;;185.40;116.57;;;128.80;2252.80;;;;;;5053421;28;20138;-89
2023/01/23 05:43:34;;;;;;;169.75;105.88;;;128.90;2252.80;;;;;;5052834;28;20489;-89
2023/01/23 05:46:00;;;;;;;167.27;101.97;;;128.90;2252.80;;;;;;5053231;28;20040;-87
2023/01/23 05:48:26;;;;;;;170.60;102.15;;;154.00;2252.80;;;;;;5053038;28;20078;-89
2023/01/23 05:50:52;;;;;;;178.73;108.20;;;153.60;2252.80;;;;;;5053393;28;20484;-87
2023/01/23 05:53:18;;;;;;;184.63;110.60;;;153.60;2252.80;;;;;;5066046;28;20097;-88
2023/01/23 05:55:43;;;;;;;198.45;114.65;;;153.70;2252.80;;;;;;5073361;28;20028;-87
2023/01/23 05:58:09;;;;;;;236.13;134.07;;;153.60;2252.80;;;;;;5072612;28;20485;-87
2023/01/23 06:00:35;;;;;;;188.00;112.60;;;128.90;2252.80;;;;;;5073044;28;20031;-88
2023/01/23 06:03:00;;;;;;;182.80;106.90;;;128.70;2252.80;;;;;;5073014;28;20060;-87
2023/01/23 06:05:27;;;;;;;168.60;110.18;;;128.80;2252.80;;;;;;5073357;28;20025;-88
2023/01/23 06:07:53;;;;;;;190.10;118.85;;;128.70;2252.80;;;;;;5072985;28;20040;-89
2023/01/23 06:10:19;;;;;;;188.73;118.50;;;128.80;2252.80;;;;;;5072642;28;20052;-88
2023/01/23 06:12:44;;;;;;;200.75;119.20;;;128.90;2252.80;;;;;;5072721;28;20040;-88
2023/01/23 06:15:10;;;;;;;198.88;123.72;;;128.80;2252.80;;;;;;5072643;28;20028;-88
2023/01/23 06:17:36;;;;;;;517.63;316.85;;;128.90;2252.80;;;;;;5073045;28;20035;-89
2023/01/23 06:20:03;;;;;;;379.98;231.00;;;128.80;2252.80;;;;;;5072948;28;20386;-89
2023/01/23 06:22:28;;;;;;;206.85;134.77;;;179.20;2252.80;;;;;;5072748;28;20064;-88
2023/01/23 06:24:54;;;;;;;206.57;132.88;;;128.90;2252.80;;;;;;5072658;28;20028;-89
2023/01/23 06:27:20;;;;;;;178.38;116.70;;;128.90;2252.80;;;;;;5072732;28;20051;-89
2023/01/23 06:29:46;;;;;;;200.55;129.90;;;128.90;2252.80;;;;;;5073901;28;20021;-88
2023/01/23 06:32:12;;;;;;;172.95;116.05;;;128.90;2252.80;;;;;;5072783;28;20488;-87
2023/01/23 06:34:37;;;;;;;163.35;108.57;;;128.90;2252.80;;;;;;5072647;28;20021;-88
2023/01/23 06:37:03;;;;;;;183.52;119.25;;;153.60;2252.80;;;;;;5073153;28;20032;-87
2023/01/23 06:39:29;;;;;;;182.95;119.45;;;128.90;2252.80;;;;;;5076306;28;20033;-89
2023/01/23 06:41:56;;;;;;;274.85;183.90;;;153.60;2252.80;;;;;;5076017;28;20123;-87
2023/01/23 06:44:22;;;;;;;273.15;166.00;;;153.70;2252.80;;;;;;5076135;28;20058;-87
2023/01/23 06:46:48;;;;;;;244.90;157.85;;;153.80;2252.80;;;;;;5076377;28;20386;-87
2023/01/23 06:49:14;;;;;;;274.17;175.40;;;153.90;2252.80;;;;;;5088094;28;20008;-86
2023/01/23 06:51:40;;;;;;;288.70;177.98;;;153.90;2252.80;;;;;;5100709;28;20019;-88
2023/01/23 06:54:06;;;;;;;263.52;166.40;;;153.90;2252.80;;;;;;5100695;28;20004;-87
2023/01/23 06:56:31;;;;;;;287.60;176.70;;;154.00;2252.80;;;;;;5100241;28;20017;-88
2023/01/23 06:58:57;;;;;;;274.67;172.15;;;154.10;2252.80;;;;;;5100530;28;20016;-87
2023/01/23 07:01:23;;;;;;;287.60;186.07;;;154.10;2252.80;;;;;;5100574;28;20030;-87
2023/01/23 07:03:49;;;;;;;298.75;191.25;;;154.00;2252.80;;;;;;5098534;28;20035;-87
2023/01/23 07:06:15;;;;;;;289.27;189.15;;;154.00;2099.20;;;;;;5083815;28;20091;-86
2023/01/23 07:08:41;;;;;;;256.13;167.57;;;154.00;2252.80;;;;;;5083575;28;20025;-85
2023/01/23 07:11:08;;;;;;;291.67;189.75;;;154.10;2252.80;;;;;;5083123;28;20053;-86
2023/01/23 07:13:34;;;;;;;325.15;203.73;;;154.20;2252.80;;;;;;5084976;28;20088;-86
2023/01/23 07:16:00;;;;;;;316.45;208.15;;;154.20;2252.80;;;;;;5083811;28;20046;-86
2023/01/23 07:18:29;;;;;;;241.68;161.68;;;154.20;2252.80;;;;;;5083388;28;20052;-86
2023/01/23 07:20:55;;;;;;;270.45;172.88;;;154.10;2252.80;;;;;;5082748;28;20114;-85
2023/01/23 07:23:21;;;;;;;298.63;193.43;;;154.20;2252.80;;;;;;5083189;28;20078;-87
2023/01/23 07:25:47;;;;;;;311.65;203.88;;;154.30;2252.80;;;;;;5078482;28;20035;-86
2023/01/23 07:28:13;;;;;;;455.38;277.23;;;154.40;2252.80;;;;;;5075186;28;20029;-88
2023/01/23 07:30:39;;;;;;;465.10;304.25;;;154.40;2252.80;;;;;;5064345;28;20048;-88
2023/01/23 07:33:05;;;;;;;487.90;319.50;;;154.40;2252.80;;;;;;5054893;28;20469;-87
2023/01/23 07:35:31;;;;;;;456.88;298.17;;;154.30;2252.80;;;;;;5054995;28;20025;-88
2023/01/23 07:37:57;;;;;;;440.45;289.65;;;154.50;2252.80;;;;;;5055173;28;20056;-88
2023/01/23 07:40:23;;;;;;;433.35;280.02;;;179.20;2252.80;;;;;;5054950;28;20036;-87
2023/01/23 07:42:49;;;;;;;421.58;287.25;;;179.30;2252.80;;;;;;5054904;28;20039;-87
2023/01/23 07:45:15;;;;;;;455.98;310.40;;;179.30;2252.80;;;;;;5055098;28;20029;-87
2023/01/23 07:47:40;;;;;;;445.75;302.00;;;179.40;2252.80;;;;;;5054546;28;20051;-87
2023/01/23 07:50:11;;;;;;;356.63;241.63;;;179.40;2252.80;;;;;;5054744;28;20377;-86
2023/01/23 07:52:37;;;;;;;295.83;199.82;;;179.50;2252.80;;;;;;5054882;28;20072;-89
2023/01/23 07:55:04;;;;;;;306.38;208.07;;;179.70;2252.80;;;;;;5054798;28;20025;-86
2023/01/23 07:57:30;;;;;;;290.55;200.45;;;179.80;2252.80;;;;;;5054629;28;20094;-88
2023/01/23 07:59:56;;;;;;;355.45;242.82;;;179.90;2252.80;;;;;;5057760;28;20024;-87
2023/01/23 08:02:22;;;;;;;378.02;263.15;;;179.90;2252.80;;;;;;5074359;28;20040;-87
2023/01/23 08:04:47;;;;;;;371.30;263.20;;;180.00;2252.80;;;;;;5074549;28;20063;-88
2023/01/23 08:07:13;;;;;;;435.58;300.13;;;179.90;2252.80;;;;;;5074356;28;20032;-88
2023/01/23 08:09:39;;;;;;;445.67;310.17;;;179.90;2252.80;;;;;;5073955;28;20020;-87
2023/01/23 08:12:05;;;;;;;415.20;293.10;;;179.90;2252.80;;;;;;5074218;28;20035;-87
2023/01/23 08:14:31;;;;;;;424.92;303.08;;;180.00;2252.80;;;;;;5074070;28;20027;-86
2023/01/23 08:16:57;;;;;;;385.27;273.98;;;180.00;1996.80;;;;;;5074154;28;20024;-88
2023/01/23 08:19:26;;;;;;;354.48;252.10;;;180.10;2252.80;;;;;;5074282;28;20066;-87
2023/01/23 08:21:52;;;;;;;302.40;218.30;;;180.10;2252.80;;;;;;5074136;28;20025;-87
2023/01/23 08:24:17;;;;;;;246.73;174.82;;;204.90;2252.80;;;;;;5074137;28;20079;-89
2023/01/23 08:26:43;;;;;;;211.50;144.60;;;204.90;2252.80;;;;;;5073749;28;20024;-87
2023/01/23 08:29:10;;;;;;;190.15;136.23;;;205.10;2252.80;;;;;;5074076;28;20028;-87
2023/01/23 08:31:36;;;;;;;186.60;133.80;;;205.20;2252.80;;;;;;5073825;28;20524;-84
2023/01/23 08:34:02;;;;;;;187.63;134.48;;;205.30;2252.80;;;;;;5074507;28;20025;-87
2023/01/23 08:36:28;;;;;;;236.07;162.32;;;205.20;2252.80;;;;;;5073947;28;20029;-88
2023/01/23 08:38:54;;;;;;;233.05;172.65;;;205.40;2252.80;;;;;;5073492;28;20408;-87
2023/01/23 08:41:22;;;;;;;231.90;166.70;;;205.50;2252.80;;;;;;5073141;28;20025;-84
2023/01/23 08:43:49;;;;;;;228.60;167.25;;;205.50;2252.80;;;;;;5073269;28;20071;-84
2023/01/23 08:46:15;;;;;;;234.82;164.45;;;205.40;2252.80;;;;;;5073113;28;20040;-84
2023/01/23 08:48:40;;;;;;;235.48;168.40;;;205.40;2252.80;;;;;;5073157;28;20028;-84
2023/01/23 08:51:09;;;;;;;252.48;177.10;;;205.50;2252.80;;;;;;5072882;28;20409;-87
2023/01/23 08:53:35;;;;;;;259.70;179.13;;;205.50;2252.80;;;;;;5058097;28;20071;-86
2023/01/23 08:56:06;;;;;;;272.35;195.88;;;205.60;2252.80;;;;;;5053035;28;20454;-85
2023/01/23 08:58:32;;;;;;;276.30;200.55;;;205.60;2252.80;;;;;;5053016;28;20067;-86
2023/01/23 09:00:58;;;;;;;270.33;205.98;;;205.70;1894.40;;;;;;5052513;28;20028;-84
2023/01/23 09:03:34;;;;;;;251.23;188.38;;;205.70;2252.80;;;;;;5053335;28;20029;-89
2023/01/23 09:06:00;;;;;;;222.57;166.45;;;205.70;1945.60;;;;;;5053839;28;20033;-87
2023/01/23 09:08:26;;;;;;;174.30;131.95;;;230.40;2252.80;;;;;;5053634;28;20079;-87
2023/01/23 09:10:52;;;;;;;136.23;105.60;;;230.50;2252.80;;;;;;5053002;28;20053;-86
2023/01/23 09:13:18;;;;;;;105.47;75.60;;;230.50;2252.80;;;;;;5053110;28;20082;-84
2023/01/23 09:15:45;;;;;;;86.65;64.75;;;230.60;2252.80;;;;;;5054358;28;20032;-86
2023/01/23 09:18:11;;;;;;;89.72;64.43;;;230.60;2252.80;;;;;;5074086;28;20024;-85
2023/01/23 09:20:37;;;;;;;76.80;58.75;;;230.70;2252.80;;;;;;5072352;28;20043;-82
2023/01/23 09:23:03;;;;;;;86.63;63.40;;;230.80;2252.80;;;;;;5072169;28;20028;-83
2023/01/23 09:25:30;;;;;;;85.10;63.03;;;230.80;2252.80;;;;;;5072433;28;20028;-83
2023/01/23 09:27:56;;;;;;;84.07;61.75;;;230.90;2252.80;;;;;;5072434;28;20031;-81
2023/01/23 09:30:22;;;;;;;85.90;64.38;;;230.90;2252.80;;;;;;5070760;28;20028;-82
2023/01/23 09:32:47;;;;;;;77.10;54.65;;;230.90;2252.80;;;;;;5071845;28;20032;-83
2023/01/23 09:35:13;;;;;;;73.97;55.08;;;231.00;2252.80;;;;;;5070676;28;20119;-82
2023/01/23 09:40:25;;;;;;;85.82;62.45;;;231.00;2252.80;;;;;;5073653;28;20128;-82
2023/01/23 09:42:53;;;;;;;95.38;65.82;;;231.10;2252.80;;;;;;5071885;28;20033;-82
2023/01/23 09:45:23;;;;;;;115.88;83.57;;;231.10;2252.80;;;;;;5073758;28;20094;-82
2023/01/23 09:47:56;;;;;;;80.10;57.53;;;231.10;2252.80;;;;;;5073812;28;20024;-82
2023/01/23 09:50:50;;;;;;;69.15;49.03;;;231.20;2252.80;;;;;;5073557;28;20060;-85
2023/01/23 09:53:21;;;;;;;79.10;55.83;;;231.20;2252.80;;;;;;5071760;28;20028;-80
2023/01/23 09:56:00;;;;;;;97.57;70.30;;;231.20;2252.80;;;;;;5071872;28;20095;-79
2023/01/23 09:59:05;;;;;;;94.93;66.75;;;231.20;2252.80;;;;;;5073053;28;20024;-81
2023/01/23 10:01:31;;;;;;;71.03;50.75;;;231.30;2252.80;;;;;;5068672;28;20037;-80
2023/01/23 10:03:59;;;;;;;73.47;52.50;;;256.00;2252.80;;;;;;5071661;28;20389;-81
2023/01/23 10:06:31;;;;;;;58.33;40.83;;;256.10;2252.80;;;;;;5071565;28;20024;-83
2023/01/23 10:09:03;;;;;;;52.25;39.08;;;256.10;2252.80;;;;;;5071927;28;20055;-80
2023/01/23 10:11:44;;;;;;;62.78;46.10;;;256.20;2252.80;;;;;;5074293;28;20040;-81
2023/01/23 10:14:33;;;;;;;64.60;46.83;;;256.40;2252.80;;;;;;5075915;28;20031;-82
2023/01/23 10:17:06;;;;;;;67.43;48.28;;;256.40;2252.80;;;;;;5075726;28;20108;-82
2023/01/23 10:19:50;;;;;;;72.57;52.15;;;256.50;2252.80;;;;;;5077149;28;20053;-82
2023/01/23 10:22:35;;;;;;;53.95;41.58;;;256.60;2252.80;;;;;;5075904;28;20381;-83
2023/01/23 10:25:22;;;;;;;62.03;45.63;;;256.70;2252.80;;;;;;5075680;28;20033;-84
2023/01/23 10:27:49;;;;;;;61.10;42.22;;;256.80;2252.80;;;;;;5075454;28;20048;-80
2023/01/23 10:30:25;;;;;;;51.33;33.60;;;256.80;2252.80;;;;;;5077170;28;20092;-84
2023/01/23 10:33:01;;;;;;;40.92;31.92;;;256.80;2252.80;;;;;;5066242;28;20028;-83
2023/01/23 10:35:49;;;;;;;40.88;27.75;;;256.80;2252.80;;;;;;5055608;28;20029;-85
2023/01/23 10:38:39;;;;;;;43.10;29.88;;;256.90;2252.80;;;;;;5060881;28;20036;-83
2023/01/23 10:41:13;;;;;;;35.38;24.77;;;256.90;2252.80;;;;;;5074969;28;20029;-84
2023/01/23 10:43:43;;;;;;;38.97;28.02;;;281.60;2278.40;;;;;;5074385;28;20035;-79
2023/01/23 10:46:34;;;;;;;31.77;24.77;;;281.70;2278.40;;;;;;5074062;28;20135;-79
2023/01/23 10:49:01;;;;;;;34.88;28.75;;;281.80;2278.40;;;;;;5069722;28;20029;-81
2023/01/23 10:51:28;;;;;;;29.80;24.40;;;281.90;2278.40;;;;;;5074584;28;20021;-79
2023/01/23 10:54:20;;;;;;;24.15;20.73;;;282.00;2278.40;;;;;;5074151;28;20024;-78
2023/01/23 10:57:03;;;;;;;24.25;19.55;;;282.00;2278.40;;;;;;5076283;28;20029;-82
2023/01/23 11:00:01;;;;;;;36.83;27.90;;;282.10;2278.40;;;;;;5074510;28;20385;-82
2023/01/23 11:02:30;;;;;;;28.48;22.63;;;282.20;2278.40;;;;;;5075992;28;20082;-79
2023/01/23 11:04:57;;;;;;;29.88;22.95;;;282.20;2278.40;;;;;;5074745;28;20094;-78
2023/01/23 11:07:31;;;;;;;41.97;30.92;;;282.30;2278.40;;;;;;5074425;28;20032;-79
2023/01/23 11:10:12;;;;;;;43.65;32.75;;;282.30;2278.40;;;;;;5075699;28;20132;-79
2023/01/23 11:12:55;;;;;;;41.85;29.08;;;282.30;2278.40;;;;;;5074143;28;20032;-80
2023/01/23 11:15:25;;;;;;;48.50;32.50;;;282.40;2278.40;;;;;;5074281;28;20031;-80
2023/01/23 11:17:56;;;;;;;35.08;25.25;;;282.40;2278.40;;;;;;5073821;28;20029;-79
2023/01/23 11:20:36;;;;;;;38.58;28.98;;;282.40;2278.40;;;;;;5074427;28;20032;-79
2023/01/23 11:23:09;;;;;;;41.70;29.65;;;282.40;2278.40;;;;;;5074553;28;20025;-78
2023/01/23 11:25:36;;;;;;;54.80;39.20;;;282.50;2278.40;;;;;;5075872;28;20029;-79
2023/01/23 11:28:16;;;;;;;36.33;28.25;;;307.20;2304.00;;;;;;5073921;28;20470;-79
2023/01/23 11:30:48;;;;;;;45.22;30.60;;;307.20;2304.00;;;;;;5063259;28;20071;-79
2023/01/23 11:33:38;;;;;;;49.22;34.83;;;307.20;2304.00;;;;;;5065425;28;20548;-79
2023/01/23 11:36:16;;;;;;;49.95;34.65;;;307.20;2304.00;;;;;;5073125;28;20111;-78
2023/01/23 11:39:03;;;;;;;43.28;30.63;;;282.50;2278.40;;;;;;5074199;28;20115;-78
2023/01/23 11:41:32;;;;;;;76.25;56.63;;;282.50;2278.40;;;;;;5073993;28;20107;-78
2023/01/23 11:44:07;;;;;;;66.82;47.45;;;282.50;2278.40;;;;;;5073625;28;20032;-79
2023/01/23 11:46:47;;;;;;;53.03;38.35;;;282.50;2278.40;;;;;;5075385;28;20513;-81
2023/01/23 11:49:25;;;;;;;39.33;27.75;;;282.50;2278.40;;;;;;5074483;28;20474;-77
2023/01/23 11:52:00;;;;;;;44.28;31.52;;;282.40;2278.40;;;;;;5073372;28;20056;-77
2023/01/23 11:54:26;;;;;;;48.80;33.15;;;282.40;2278.40;;;;;;5073292;28;20032;-78
2023/01/23 11:56:57;;;;;;;49.45;35.78;;;282.30;2278.40;;;;;;5073966;28;20032;-78
2023/01/23 11:59:38;;;;;;;46.03;30.45;;;282.30;2278.40;;;;;;5074239;28;20046;-78
2023/01/23 12:02:26;;;;;;;40.88;30.08;;;282.30;2278.40;;;;;;5070216;28;20032;-77
2023/01/23 12:05:23;;;;;;;44.58;32.85;;;282.30;2278.40;;;;;;5072074;28;20291;-78
2023/01/23 12:08:11;;;;;;;52.08;34.70;;;282.30;2278.40;;;;;;5073923;28;20466;-77